sensor_id;sensor_type;location;lat;lon;timestamp;temperature;humidity
20839;DHT22;10580;51.092;6.828;2023-03-14T00:00:37;11.40;1.00
20839;DHT22;10580;51.092;6.828;2023-03-14T00:03:03;11.40;1.00
20839;DHT22;10580;51.092;6.828;2023-03-14T00:05:29;11.40;1.00
20839;DHT22;10580;51.092;6.828;2023-03-14T00:07:54;11.50;1.00
20839;DHT22;10580;51.092;6.828;2023-03-14T00:10:20;11.40;1.00
20839;DHT22;10580;51.092;6.828;2023-03-14T00:12:46;11.40;1.00
20839;DHT22;10580;51.092;6.828;2023-03-14T00:15:12;11.40;1.00
20839;DHT22;10580;51.092;6.828;2023-03-14T00:17:38;11.40;1.00
20839;DHT22;10580;51.092;6.828;2023-03-14T00:20:05;11.40;1.00
20839;DHT22;10580;51.092;6.828;2023-03-14T00:22:40;11.40;1.00
20839;DHT22;10580;51.092;6.828;2023-03-14T00:25:08;11.40;1.00
20839;DHT22;10580;51.092;6.828;2023-03-14T00:27:34;11.40;1.00
20839;DHT22;10580;51.092;6.828;2023-03-14T00:30:00;11.50;1.00
20839;DHT22;10580;51.092;6.828;2023-03-14T00:32:26;11.50;1.00
20839;DHT22;10580;51.092;6.828;2023-03-14T00:34:52;11.50;1.00
20839;DHT22;10580;51.092;6.828;2023-03-14T00:37:17;11.50;1.00
20839;DHT22;10580;51.092;6.828;2023-03-14T00:39:43;11.50;1.00
20839;DHT22;10580;51.092;6.828;2023-03-14T00:42:09;11.50;1.00
20839;DHT22;10580;51.092;6.828;2023-03-14T00:44:34;11.50;1.00
20839;DHT22;10580;51.092;6.828;2023-03-14T00:47:00;11.50;1.00
20839;DHT22;10580;51.092;6.828;2023-03-14T00:49:26;11.40;1.00
20839;DHT22;10580;51.092;6.828;2023-03-14T00:51:51;11.10;1.00
20839;DHT22;10580;51.092;6.828;2023-03-14T00:54:18;10.80;1.00
20839;DHT22;10580;51.092;6.828;2023-03-14T00:56:44;10.30;47.00
20839;DHT22;10580;51.092;6.828;2023-03-14T00:59:09;10.00;99.90
20839;DHT22;10580;51.092;6.828;2023-03-14T01:01:35;9.70;99.90
20839;DHT22;10580;51.092;6.828;2023-03-14T01:04:01;9.60;99.90
20839;DHT22;10580;51.092;6.828;2023-03-14T01:06:28;9.50;99.90
20839;DHT22;10580;51.092;6.828;2023-03-14T01:08:54;9.50;99.90
20839;DHT22;10580;51.092;6.828;2023-03-14T01:11:28;9.40;99.90
20839;DHT22;10580;51.092;6.828;2023-03-14T01:13:55;9.40;99.90
20839;DHT22;10580;51.092;6.828;2023-03-14T01:16:23;9.40;99.90
20839;DHT22;10580;51.092;6.828;2023-03-14T01:18:49;9.40;99.90
20839;DHT22;10580;51.092;6.828;2023-03-14T01:21:17;9.40;99.90
20839;DHT22;10580;51.092;6.828;2023-03-14T01:23:44;9.40;99.90
20839;DHT22;10580;51.092;6.828;2023-03-14T01:26:11;9.40;99.90
20839;DHT22;10580;51.092;6.828;2023-03-14T01:28:37;9.50;99.90
20839;DHT22;10580;51.092;6.828;2023-03-14T01:31:04;9.50;99.90
20839;DHT22;10580;51.092;6.828;2023-03-14T01:33:30;9.50;99.90
20839;DHT22;10580;51.092;6.828;2023-03-14T01:35:56;9.50;99.90
20839;DHT22;10580;51.092;6.828;2023-03-14T01:38:21;9.50;99.90
20839;DHT22;10580;51.092;6.828;2023-03-14T01:40:47;9.50;99.90
20839;DHT22;10580;51.092;6.828;2023-03-14T01:43:15;9.50;99.90
20839;DHT22;10580;51.092;6.828;2023-03-14T01:48:28;9.50;99.90
20839;DHT22;10580;51.092;6.828;2023-03-14T01:50:54;9.60;99.90
20839;DHT22;10580;51.092;6.828;2023-03-14T01:53:20;9.50;99.90
20839;DHT22;10580;51.092;6.828;2023-03-14T01:55:48;9.60;99.90
20839;DHT22;10580;51.092;6.828;2023-03-14T01:58:14;9.60;99.90
20839;DHT22;10580;51.092;6.828;2023-03-14T02:00:42;9.50;99.90
20839;DHT22;10580;51.092;6.828;2023-03-14T02:03:16;9.50;99.90
20839;DHT22;10580;51.092;6.828;2023-03-14T02:05:43;9.50;99.90
20839;DHT22;10580;51.092;6.828;2023-03-14T02:08:15;9.50;99.90
20839;DHT22;10580;51.092;6.828;2023-03-14T02:10:45;9.40;99.90
20839;DHT22;10580;51.092;6.828;2023-03-14T02:13:11;9.50;99.90
20839;DHT22;10580;51.092;6.828;2023-03-14T02:15:38;9.50;99.90
20839;DHT22;10580;51.092;6.828;2023-03-14T02:18:04;9.50;99.90
20839;DHT22;10580;51.092;6.828;2023-03-14T02:20:44;9.50;99.90
20839;DHT22;10580;51.092;6.828;2023-03-14T02:23:10;9.50;99.90
20839;DHT22;10580;51.092;6.828;2023-03-14T02:26:01;9.50;99.90
20839;DHT22;10580;51.092;6.828;2023-03-14T02:28:28;9.50;99.90
20839;DHT22;10580;51.092;6.828;2023-03-14T02:30:54;9.50;99.90
20839;DHT22;10580;51.092;6.828;2023-03-14T02:33:20;9.50;99.90
20839;DHT22;10580;51.092;6.828;2023-03-14T02:36:00;9.60;99.90
20839;DHT22;10580;51.092;6.828;2023-03-14T02:38:33;9.60;99.90
20839;DHT22;10580;51.092;6.828;2023-03-14T02:41:01;9.70;99.90
20839;DHT22;10580;51.092;6.828;2023-03-14T02:43:26;9.70;99.90
20839;DHT22;10580;51.092;6.828;2023-03-14T02:45:52;9.70;99.90
20839;DHT22;10580;51.092;6.828;2023-03-14T02:48:24;9.70;99.90
20839;DHT22;10580;51.092;6.828;2023-03-14T02:50:53;9.80;99.90
20839;DHT22;10580;51.092;6.828;2023-03-14T02:53:25;9.70;99.90
20839;DHT22;10580;51.092;6.828;2023-03-14T02:55:51;9.80;99.90
20839;DHT22;10580;51.092;6.828;2023-03-14T02:58:18;9.70;99.90
20839;DHT22;10580;51.092;6.828;2023-03-14T03:00:44;9.80;99.90
20839;DHT22;10580;51.092;6.828;2023-03-14T03:03:10;9.80;99.90
20839;DHT22;10580;51.092;6.828;2023-03-14T03:05:36;9.80;99.90
20839;DHT22;10580;51.092;6.828;2023-03-14T03:08:02;9.80;99.90
20839;DHT22;10580;51.092;6.828;2023-03-14T03:10:28;9.80;99.90
20839;DHT22;10580;51.092;6.828;2023-03-14T03:12:53;9.80;99.90
20839;DHT22;10580;51.092;6.828;2023-03-14T03:15:19;9.80;99.90
20839;DHT22;10580;51.092;6.828;2023-03-14T03:17:45;9.80;99.90
20839;DHT22;10580;51.092;6.828;2023-03-14T03:20:11;9.80;99.90
20839;DHT22;10580;51.092;6.828;2023-03-14T03:22:37;9.80;99.90
20839;DHT22;10580;51.092;6.828;2023-03-14T03:25:04;9.80;99.90
20839;DHT22;10580;51.092;6.828;2023-03-14T03:27:32;9.80;99.90
20839;DHT22;10580;51.092;6.828;2023-03-14T03:29:58;9.80;99.90
20839;DHT22;10580;51.092;6.828;2023-03-14T03:32:24;9.80;99.90
20839;DHT22;10580;51.092;6.828;2023-03-14T03:34:50;9.80;99.90
20839;DHT22;10580;51.092;6.828;2023-03-14T03:37:15;9.70;99.90
20839;DHT22;10580;51.092;6.828;2023-03-14T03:39:41;9.70;99.90
20839;DHT22;10580;51.092;6.828;2023-03-14T03:42:06;9.70;99.90
20839;DHT22;10580;51.092;6.828;2023-03-14T03:44:32;9.70;99.90
20839;DHT22;10580;51.092;6.828;2023-03-14T03:46:57;9.70;99.90
20839;DHT22;10580;51.092;6.828;2023-03-14T03:49:23;9.70;99.90
20839;DHT22;10580;51.092;6.828;2023-03-14T03:51:48;9.60;99.90
20839;DHT22;10580;51.092;6.828;2023-03-14T03:54:14;9.60;99.90
20839;DHT22;10580;51.092;6.828;2023-03-14T03:56:39;9.60;99.90
20839;DHT22;10580;51.092;6.828;2023-03-14T03:59:05;9.60;99.90
20839;DHT22;10580;51.092;6.828;2023-03-14T04:01:31;9.60;99.90
20839;DHT22;10580;51.092;6.828;2023-03-14T04:03:56;9.50;99.90
20839;DHT22;10580;51.092;6.828;2023-03-14T04:06:22;9.50;99.90
20839;DHT22;10580;51.092;6.828;2023-03-14T04:08:47;9.50;99.90
20839;DHT22;10580;51.092;6.828;2023-03-14T04:11:13;9.50;99.90
20839;DHT22;10580;51.092;6.828;2023-03-14T04:13:38;9.50;99.90
20839;DHT22;10580;51.092;6.828;2023-03-14T04:16:12;9.40;99.90
20839;DHT22;10580;51.092;6.828;2023-03-14T04:18:39;9.40;99.90
20839;DHT22;10580;51.092;6.828;2023-03-14T04:21:05;9.40;99.90
20839;DHT22;10580;51.092;6.828;2023-03-14T04:23:31;9.40;99.90
20839;DHT22;10580;51.092;6.828;2023-03-14T04:25:56;9.40;99.90
20839;DHT22;10580;51.092;6.828;2023-03-14T04:28:22;9.40;99.90
20839;DHT22;10580;51.092;6.828;2023-03-14T04:30:47;9.50;99.90
20839;DHT22;10580;51.092;6.828;2023-03-14T04:33:13;9.40;99.90
20839;DHT22;10580;51.092;6.828;2023-03-14T04:35:44;9.50;99.90
20839;DHT22;10580;51.092;6.828;2023-03-14T04:38:11;9.50;99.90
20839;DHT22;10580;51.092;6.828;2023-03-14T04:40:38;9.50;99.90
20839;DHT22;10580;51.092;6.828;2023-03-14T04:43:04;9.50;99.90
20839;DHT22;10580;51.092;6.828;2023-03-14T04:45:29;9.50;99.90
20839;DHT22;10580;51.092;6.828;2023-03-14T04:47:55;9.60;99.90
20839;DHT22;10580;51.092;6.828;2023-03-14T04:50:21;9.60;99.90
20839;DHT22;10580;51.092;6.828;2023-03-14T04:52:46;9.60;99.90
20839;DHT22;10580;51.092;6.828;2023-03-14T04:55:12;9.60;99.90
20839;DHT22;10580;51.092;6.828;2023-03-14T04:57:37;9.60;99.90
20839;DHT22;10580;51.092;6.828;2023-03-14T05:00:04;9.60;99.90
20839;DHT22;10580;51.092;6.828;2023-03-14T05:02:33;9.60;99.90
20839;DHT22;10580;51.092;6.828;2023-03-14T05:04:59;9.70;99.90
20839;DHT22;10580;51.092;6.828;2023-03-14T05:07:25;9.70;99.90
20839;DHT22;10580;51.092;6.828;2023-03-14T05:09:51;9.70;99.90
20839;DHT22;10580;51.092;6.828;2023-03-14T05:12:19;9.70;99.90
20839;DHT22;10580;51.092;6.828;2023-03-14T05:14:44;9.70;99.90
20839;DHT22;10580;51.092;6.828;2023-03-14T05:17:10;9.70;99.90
20839;DHT22;10580;51.092;6.828;2023-03-14T05:19:36;9.60;99.90
20839;DHT22;10580;51.092;6.828;2023-03-14T05:22:02;9.70;99.90
20839;DHT22;10580;51.092;6.828;2023-03-14T05:24:28;9.60;99.90
20839;DHT22;10580;51.092;6.828;2023-03-14T05:26:54;9.60;99.90
20839;DHT22;10580;51.092;6.828;2023-03-14T05:29:19;9.60;99.90
20839;DHT22;10580;51.092;6.828;2023-03-14T05:31:45;9.70;99.90
20839;DHT22;10580;51.092;6.828;2023-03-14T05:34:10;9.70;99.90
20839;DHT22;10580;51.092;6.828;2023-03-14T05:36:36;9.70;99.90
20839;DHT22;10580;51.092;6.828;2023-03-14T05:39:02;9.70;99.90
20839;DHT22;10580;51.092;6.828;2023-03-14T05:41:28;9.70;99.90
20839;DHT22;10580;51.092;6.828;2023-03-14T05:43:54;9.70;99.90
20839;DHT22;10580;51.092;6.828;2023-03-14T05:46:20;9.80;99.90
20839;DHT22;10580;51.092;6.828;2023-03-14T05:48:45;9.80;99.90
20839;DHT22;10580;51.092;6.828;2023-03-14T05:51:11;9.80;99.90
20839;DHT22;10580;51.092;6.828;2023-03-14T05:53:37;9.90;99.90
20839;DHT22;10580;51.092;6.828;2023-03-14T05:56:02;9.80;99.90
20839;DHT22;10580;51.092;6.828;2023-03-14T05:58:28;9.80;99.90
20839;DHT22;10580;51.092;6.828;2023-03-14T06:00:53;9.80;99.90
20839;DHT22;10580;51.092;6.828;2023-03-14T06:03:19;9.80;99.90
20839;DHT22;10580;51.092;6.828;2023-03-14T06:05:44;9.80;99.90
20839;DHT22;10580;51.092;6.828;2023-03-14T06:08:10;9.80;99.90
20839;DHT22;10580;51.092;6.828;2023-03-14T06:10:36;9.80;99.90
20839;DHT22;10580;51.092;6.828;2023-03-14T06:13:02;9.80;99.90
20839;DHT22;10580;51.092;6.828;2023-03-14T06:15:28;9.80;99.90
20839;DHT22;10580;51.092;6.828;2023-03-14T06:17:55;9.80;99.90
20839;DHT22;10580;51.092;6.828;2023-03-14T06:20:21;9.80;99.90
20839;DHT22;10580;51.092;6.828;2023-03-14T06:22:46;9.80;99.90
20839;DHT22;10580;51.092;6.828;2023-03-14T06:25:12;9.80;99.90
20839;DHT22;10580;51.092;6.828;2023-03-14T06:27:37;9.80;99.90
20839;DHT22;10580;51.092;6.828;2023-03-14T06:30:04;9.80;99.90
20839;DHT22;10580;51.092;6.828;2023-03-14T06:32:29;9.90;99.90
20839;DHT22;10580;51.092;6.828;2023-03-14T06:34:55;9.80;99.90
20839;DHT22;10580;51.092;6.828;2023-03-14T06:37:22;9.90;99.90
20839;DHT22;10580;51.092;6.828;2023-03-14T06:39:48;9.90;99.90
20839;DHT22;10580;51.092;6.828;2023-03-14T06:42:13;9.90;99.90
20839;DHT22;10580;51.092;6.828;2023-03-14T06:44:39;9.90;99.90
20839;DHT22;10580;51.092;6.828;2023-03-14T06:47:04;9.90;99.90
20839;DHT22;10580;51.092;6.828;2023-03-14T06:49:30;10.00;99.90
20839;DHT22;10580;51.092;6.828;2023-03-14T06:51:55;10.00;99.90
20839;DHT22;10580;51.092;6.828;2023-03-14T06:54:21;10.10;99.90
20839;DHT22;10580;51.092;6.828;2023-03-14T06:56:47;10.10;99.90
20839;DHT22;10580;51.092;6.828;2023-03-14T06:59:12;10.20;99.90
20839;DHT22;10580;51.092;6.828;2023-03-14T07:01:38;10.10;99.90
20839;DHT22;10580;51.092;6.828;2023-03-14T07:04:04;10.10;99.90
20839;DHT22;10580;51.092;6.828;2023-03-14T07:06:29;10.20;99.90
20839;DHT22;10580;51.092;6.828;2023-03-14T07:08:55;10.10;99.90
20839;DHT22;10580;51.092;6.828;2023-03-14T07:11:21;10.20;99.90
20839;DHT22;10580;51.092;6.828;2023-03-14T07:13:47;10.30;99.90
20839;DHT22;10580;51.092;6.828;2023-03-14T07:16:13;10.30;99.90
20839;DHT22;10580;51.092;6.828;2023-03-14T07:18:39;10.40;99.90
20839;DHT22;10580;51.092;6.828;2023-03-14T07:21:08;10.40;99.90
20839;DHT22;10580;51.092;6.828;2023-03-14T07:23:37;10.40;99.90
20839;DHT22;10580;51.092;6.828;2023-03-14T07:26:03;10.50;99.90
20839;DHT22;10580;51.092;6.828;2023-03-14T07:28:29;10.50;99.90
20839;DHT22;10580;51.092;6.828;2023-03-14T07:30:55;10.60;99.90
20839;DHT22;10580;51.092;6.828;2023-03-14T07:33:21;10.70;99.90
20839;DHT22;10580;51.092;6.828;2023-03-14T07:35:48;10.70;99.90
20839;DHT22;10580;51.092;6.828;2023-03-14T07:38:14;10.80;99.90
20839;DHT22;10580;51.092;6.828;2023-03-14T07:40:39;10.80;99.90
20839;DHT22;10580;51.092;6.828;2023-03-14T07:43:05;10.80;99.90
20839;DHT22;10580;51.092;6.828;2023-03-14T07:45:31;10.80;99.90
20839;DHT22;10580;51.092;6.828;2023-03-14T07:47:57;10.80;99.90
20839;DHT22;10580;51.092;6.828;2023-03-14T07:50:24;10.80;99.90
20839;DHT22;10580;51.092;6.828;2023-03-14T07:52:50;10.80;99.90
20839;DHT22;10580;51.092;6.828;2023-03-14T07:55:15;10.90;99.90
20839;DHT22;10580;51.092;6.828;2023-03-14T07:57:41;10.90;99.90
20839;DHT22;10580;51.092;6.828;2023-03-14T08:00:07;10.90;99.90
20839;DHT22;10580;51.092;6.828;2023-03-14T08:02:33;11.00;99.90
20839;DHT22;10580;51.092;6.828;2023-03-14T08:04:59;11.00;99.90
20839;DHT22;10580;51.092;6.828;2023-03-14T08:07:24;11.10;99.90
20839;DHT22;10580;51.092;6.828;2023-03-14T08:09:50;11.10;99.90
20839;DHT22;10580;51.092;6.828;2023-03-14T08:12:15;11.20;99.90
20839;DHT22;10580;51.092;6.828;2023-03-14T08:14:41;11.30;99.90
20839;DHT22;10580;51.092;6.828;2023-03-14T08:17:07;11.40;99.90
20839;DHT22;10580;51.092;6.828;2023-03-14T08:19:33;11.30;99.90
20839;DHT22;10580;51.092;6.828;2023-03-14T08:21:59;11.40;99.90
20839;DHT22;10580;51.092;6.828;2023-03-14T08:24:24;11.30;99.90
20839;DHT22;10580;51.092;6.828;2023-03-14T08:26:50;11.40;99.90
20839;DHT22;10580;51.092;6.828;2023-03-14T08:29:15;11.50;99.90
20839;DHT22;10580;51.092;6.828;2023-03-14T08:31:41;11.40;99.90
20839;DHT22;10580;51.092;6.828;2023-03-14T08:34:07;11.40;99.90
20839;DHT22;10580;51.092;6.828;2023-03-14T08:36:33;11.30;99.90
20839;DHT22;10580;51.092;6.828;2023-03-14T08:38:58;11.30;99.90
20839;DHT22;10580;51.092;6.828;2023-03-14T08:41:24;11.30;99.90
20839;DHT22;10580;51.092;6.828;2023-03-14T08:43:50;11.30;99.90
20839;DHT22;10580;51.092;6.828;2023-03-14T08:46:18;11.40;99.90
20839;DHT22;10580;51.092;6.828;2023-03-14T08:48:44;11.40;99.90
20839;DHT22;10580;51.092;6.828;2023-03-14T08:51:11;11.40;99.90
20839;DHT22;10580;51.092;6.828;2023-03-14T08:53:38;11.40;99.90
20839;DHT22;10580;51.092;6.828;2023-03-14T08:56:04;11.40;99.90
20839;DHT22;10580;51.092;6.828;2023-03-14T08:58:31;11.30;99.90
20839;DHT22;10580;51.092;6.828;2023-03-14T09:00:57;11.20;99.90
20839;DHT22;10580;51.092;6.828;2023-03-14T09:03:23;11.10;99.90
20839;DHT22;10580;51.092;6.828;2023-03-14T09:05:50;11.00;99.90
20839;DHT22;10580;51.092;6.828;2023-03-14T09:08:15;10.80;99.90
20839;DHT22;10580;51.092;6.828;2023-03-14T09:10:41;10.80;99.90
20839;DHT22;10580;51.092;6.828;2023-03-14T09:13:07;10.80;99.90
20839;DHT22;10580;51.092;6.828;2023-03-14T09:15:32;10.80;99.90
20839;DHT22;10580;51.092;6.828;2023-03-14T09:17:58;10.80;99.90
20839;DHT22;10580;51.092;6.828;2023-03-14T09:20:23;10.70;99.90
20839;DHT22;10580;51.092;6.828;2023-03-14T09:22:49;10.70;99.90
20839;DHT22;10580;51.092;6.828;2023-03-14T09:25:15;10.70;99.90
20839;DHT22;10580;51.092;6.828;2023-03-14T09:27:40;10.60;99.90
20839;DHT22;10580;51.092;6.828;2023-03-14T09:30:07;10.40;99.90
20839;DHT22;10580;51.092;6.828;2023-03-14T09:32:32;10.10;99.90
20839;DHT22;10580;51.092;6.828;2023-03-14T09:34:58;9.80;99.90
20839;DHT22;10580;51.092;6.828;2023-03-14T09:37:24;9.70;99.90
20839;DHT22;10580;51.092;6.828;2023-03-14T09:39:49;9.50;99.90
20839;DHT22;10580;51.092;6.828;2023-03-14T09:42:18;9.50;99.90
20839;DHT22;10580;51.092;6.828;2023-03-14T09:44:53;9.30;99.90
20839;DHT22;10580;51.092;6.828;2023-03-14T09:47:20;9.20;99.90
20839;DHT22;10580;51.092;6.828;2023-03-14T09:49:46;9.10;99.90
20839;DHT22;10580;51.092;6.828;2023-03-14T09:52:19;9.20;99.90
20839;DHT22;10580;51.092;6.828;2023-03-14T09:54:52;9.10;99.90
20839;DHT22;10580;51.092;6.828;2023-03-14T09:57:24;9.10;99.90
20839;DHT22;10580;51.092;6.828;2023-03-14T09:59:52;9.10;99.90
20839;DHT22;10580;51.092;6.828;2023-03-14T10:04:50;9.10;99.90
20839;DHT22;10580;51.092;6.828;2023-03-14T10:07:19;9.00;99.90
20839;DHT22;10580;51.092;6.828;2023-03-14T10:09:49;9.00;99.90
20839;DHT22;10580;51.092;6.828;2023-03-14T10:12:16;8.80;99.90
20839;DHT22;10580;51.092;6.828;2023-03-14T10:14:52;8.80;99.90
20839;DHT22;10580;51.092;6.828;2023-03-14T10:17:19;8.70;99.90
20839;DHT22;10580;51.092;6.828;2023-03-14T10:19:59;8.60;99.90
20839;DHT22;10580;51.092;6.828;2023-03-14T10:22:29;8.60;99.90
20839;DHT22;10580;51.092;6.828;2023-03-14T10:25:00;8.50;99.90
20839;DHT22;10580;51.092;6.828;2023-03-14T10:27:32;8.50;99.90
20839;DHT22;10580;51.092;6.828;2023-03-14T10:30:00;8.50;99.90
20839;DHT22;10580;51.092;6.828;2023-03-14T10:37:52;8.60;99.90
20839;DHT22;10580;51.092;6.828;2023-03-14T10:40:21;8.60;99.90
20839;DHT22;10580;51.092;6.828;2023-03-14T10:42:49;8.50;99.90
20839;DHT22;10580;51.092;6.828;2023-03-14T10:45:40;8.50;99.90
20839;DHT22;10580;51.092;6.828;2023-03-14T10:50:48;8.30;99.90
20839;DHT22;10580;51.092;6.828;2023-03-14T10:53:17;8.30;99.90
20839;DHT22;10580;51.092;6.828;2023-03-14T10:55:45;8.50;99.90
20839;DHT22;10580;51.092;6.828;2023-03-14T10:58:25;8.60;99.90
20839;DHT22;10580;51.092;6.828;2023-03-14T11:00:58;8.70;99.90
20839;DHT22;10580;51.092;6.828;2023-03-14T11:03:26;8.90;99.90
20839;DHT22;10580;51.092;6.828;2023-03-14T11:06:05;9.00;99.90
20839;DHT22;10580;51.092;6.828;2023-03-14T11:11:22;8.90;99.90
20839;DHT22;10580;51.092;6.828;2023-03-14T11:14:14;9.00;99.90
20839;DHT22;10580;51.092;6.828;2023-03-14T11:16:59;9.00;99.90
20839;DHT22;10580;51.092;6.828;2023-03-14T11:19:47;8.90;99.90
20839;DHT22;10580;51.092;6.828;2023-03-14T11:22:40;8.80;99.90
20839;DHT22;10580;51.092;6.828;2023-03-14T11:25:35;8.50;99.90
20839;DHT22;10580;51.092;6.828;2023-03-14T11:28:23;8.20;99.90
20839;DHT22;10580;51.092;6.828;2023-03-14T11:30:54;8.00;99.90
20839;DHT22;10580;51.092;6.828;2023-03-14T11:33:37;7.80;99.90
20839;DHT22;10580;51.092;6.828;2023-03-14T11:36:06;7.70;99.90
20839;DHT22;10580;51.092;6.828;2023-03-14T11:38:46;7.70;99.90
20839;DHT22;10580;51.092;6.828;2023-03-14T11:41:33;7.70;99.90
20839;DHT22;10580;51.092;6.828;2023-03-14T11:44:04;7.80;99.90
20839;DHT22;10580;51.092;6.828;2023-03-14T11:47:01;7.80;99.90
20839;DHT22;10580;51.092;6.828;2023-03-14T11:49:32;7.80;99.90
20839;DHT22;10580;51.092;6.828;2023-03-14T11:52:20;7.70;99.90
20839;DHT22;10580;51.092;6.828;2023-03-14T11:54:55;7.70;99.90
20839;DHT22;10580;51.092;6.828;2023-03-14T11:57:22;7.40;99.90
20839;DHT22;10580;51.092;6.828;2023-03-14T12:00:01;7.20;99.90
20839;DHT22;10580;51.092;6.828;2023-03-14T12:05:19;7.00;99.90
20839;DHT22;10580;51.092;6.828;2023-03-14T12:10:52;7.20;99.90
20839;DHT22;10580;51.092;6.828;2023-03-14T12:13:19;7.40;99.90
20839;DHT22;10580;51.092;6.828;2023-03-14T12:15:57;7.50;99.90
20839;DHT22;10580;51.092;6.828;2023-03-14T12:18:39;7.60;99.90
20839;DHT22;10580;51.092;6.828;2023-03-14T12:21:09;7.70;99.90
20839;DHT22;10580;51.092;6.828;2023-03-14T12:23:50;7.70;96.00
20839;DHT22;10580;51.092;6.828;2023-03-14T12:26:22;7.80;99.80
20839;DHT22;10580;51.092;6.828;2023-03-14T12:42:17;7.60;42.00
20839;DHT22;10580;51.092;6.828;2023-03-14T12:44:49;7.60;25.60
20839;DHT22;10580;51.092;6.828;2023-03-14T12:49:48;7.50;1.00
20839;DHT22;10580;51.092;6.828;2023-03-14T12:52:17;7.50;3.00
20839;DHT22;10580;51.092;6.828;2023-03-14T12:54:55;7.60;13.50
20839;DHT22;10580;51.092;6.828;2023-03-14T12:57:36;7.60;35.80
20839;DHT22;10580;51.092;6.828;2023-03-14T13:00:22;7.80;44.80
20839;DHT22;10580;51.092;6.828;2023-03-14T13:02:49;8.00;55.10
20839;DHT22;10580;51.092;6.828;2023-03-14T13:05:22;8.30;80.00
20839;DHT22;10580;51.092;6.828;2023-03-14T13:15:41;9.60;1.00
20839;DHT22;10580;51.092;6.828;2023-03-14T13:18:17;9.40;1.00
20839;DHT22;10580;51.092;6.828;2023-03-14T13:20:51;9.00;1.00
20839;DHT22;10580;51.092;6.828;2023-03-14T13:23:23;8.50;2.00
20839;DHT22;10580;51.092;6.828;2023-03-14T13:25:49;8.20;1.00
20839;DHT22;10580;51.092;6.828;2023-03-14T13:28:15;7.90;1.00
20839;DHT22;10580;51.092;6.828;2023-03-14T13:30:43;7.80;1.00
20839;DHT22;10580;51.092;6.828;2023-03-14T13:33:18;7.50;1.00
20839;DHT22;10580;51.092;6.828;2023-03-14T13:36:05;7.20;1.00
20839;DHT22;10580;51.092;6.828;2023-03-14T13:38:33;7.10;21.30
20839;DHT22;10580;51.092;6.828;2023-03-14T13:41:04;7.20;40.60
20839;DHT22;10580;51.092;6.828;2023-03-14T13:43:32;7.20;25.80
20839;DHT22;10580;51.092;6.828;2023-03-14T13:46:21;7.20;17.10
20839;DHT22;10580;51.092;6.828;2023-03-14T13:48:57;7.10;1.00
20839;DHT22;10580;51.092;6.828;2023-03-14T13:51:23;7.30;34.10
20839;DHT22;10580;51.092;6.828;2023-03-14T13:53:55;7.40;15.10
20839;DHT22;10580;51.092;6.828;2023-03-14T13:56:22;7.40;1.00
20839;DHT22;10580;51.092;6.828;2023-03-14T13:58:49;7.40;1.00
20839;DHT22;10580;51.092;6.828;2023-03-14T14:01:25;7.50;5.80
20839;DHT22;10580;51.092;6.828;2023-03-14T14:03:53;7.40;1.00
20839;DHT22;10580;51.092;6.828;2023-03-14T14:06:33;7.40;1.00
20839;DHT22;10580;51.092;6.828;2023-03-14T14:09:11;7.40;1.10
20839;DHT22;10580;51.092;6.828;2023-03-14T14:11:55;7.60;20.70
20839;DHT22;10580;51.092;6.828;2023-03-14T14:14:32;7.70;6.90
20839;DHT22;10580;51.092;6.828;2023-03-14T14:17:00;7.80;1.00
20839;DHT22;10580;51.092;6.828;2023-03-14T14:19:28;7.80;1.00
20839;DHT22;10580;51.092;6.828;2023-03-14T14:21:55;7.80;1.00
20839;DHT22;10580;51.092;6.828;2023-03-14T14:24:24;7.90;1.00
20839;DHT22;10580;51.092;6.828;2023-03-14T14:26:52;7.90;1.00
20839;DHT22;10580;51.092;6.828;2023-03-14T14:29:27;8.10;1.00
20839;DHT22;10580;51.092;6.828;2023-03-14T14:34:41;8.30;1.00
20839;DHT22;10580;51.092;6.828;2023-03-14T14:39:48;8.30;1.00
20839;DHT22;10580;51.092;6.828;2023-03-14T14:42:15;8.20;1.00
20839;DHT22;10580;51.092;6.828;2023-03-14T14:44:47;8.30;1.00
20839;DHT22;10580;51.092;6.828;2023-03-14T14:47:15;8.20;97.40
20839;DHT22;10580;51.092;6.828;2023-03-14T14:49:43;8.20;1.00
20839;DHT22;10580;51.092;6.828;2023-03-14T14:52:13;8.30;1.00
20839;DHT22;10580;51.092;6.828;2023-03-14T14:54:45;8.30;1.00
20839;DHT22;10580;51.092;6.828;2023-03-14T14:57:25;8.40;1.00
20839;DHT22;10580;51.092;6.828;2023-03-14T14:59:55;8.40;1.00
20839;DHT22;10580;51.092;6.828;2023-03-14T15:02:32;8.30;1.00
20839;DHT22;10580;51.092;6.828;2023-03-14T15:05:00;8.30;99.90
20839;DHT22;10580;51.092;6.828;2023-03-14T15:07:29;8.30;99.90
20839;DHT22;10580;51.092;6.828;2023-03-14T15:09:55;8.20;1.00
20839;DHT22;10580;51.092;6.828;2023-03-14T15:12:20;8.30;99.90
20839;DHT22;10580;51.092;6.828;2023-03-14T15:14:46;8.30;99.90
20839;DHT22;10580;51.092;6.828;2023-03-14T15:17:13;8.30;1.00
20839;DHT22;10580;51.092;6.828;2023-03-14T15:19:44;8.30;99.80
20839;DHT22;10580;51.092;6.828;2023-03-14T15:22:12;8.40;1.00
20839;DHT22;10580;51.092;6.828;2023-03-14T15:24:41;8.40;99.90
20839;DHT22;10580;51.092;6.828;2023-03-14T15:27:13;8.40;99.90
20839;DHT22;10580;51.092;6.828;2023-03-14T15:29:40;8.40;1.00
20839;DHT22;10580;51.092;6.828;2023-03-14T15:32:10;8.30;99.90
20839;DHT22;10580;51.092;6.828;2023-03-14T15:34:36;8.20;1.00
20839;DHT22;10580;51.092;6.828;2023-03-14T15:37:02;8.20;98.90
20839;DHT22;10580;51.092;6.828;2023-03-14T15:39:48;8.10;1.00
20839;DHT22;10580;51.092;6.828;2023-03-14T15:42:14;8.10;1.00
20839;DHT22;10580;51.092;6.828;2023-03-14T15:44:40;8.00;1.00
20839;DHT22;10580;51.092;6.828;2023-03-14T15:47:06;8.00;1.00
20839;DHT22;10580;51.092;6.828;2023-03-14T15:49:32;8.00;1.00
20839;DHT22;10580;51.092;6.828;2023-03-14T15:51:58;8.00;1.00
20839;DHT22;10580;51.092;6.828;2023-03-14T15:54:29;7.90;1.00
20839;DHT22;10580;51.092;6.828;2023-03-14T15:57:09;7.90;1.00
20839;DHT22;10580;51.092;6.828;2023-03-14T15:59:53;7.80;1.00
20839;DHT22;10580;51.092;6.828;2023-03-14T16:02:18;7.80;99.90
20839;DHT22;10580;51.092;6.828;2023-03-14T16:04:44;7.80;1.00
20839;DHT22;10580;51.092;6.828;2023-03-14T16:07:10;7.80;1.00
20839;DHT22;10580;51.092;6.828;2023-03-14T16:09:35;7.80;99.90
20839;DHT22;10580;51.092;6.828;2023-03-14T16:12:01;7.70;1.00
20839;DHT22;10580;51.092;6.828;2023-03-14T16:14:26;7.70;1.00
20839;DHT22;10580;51.092;6.828;2023-03-14T16:16:52;7.70;99.90
20839;DHT22;10580;51.092;6.828;2023-03-14T16:19:20;7.60;1.00
20839;DHT22;10580;51.092;6.828;2023-03-14T16:21:45;7.60;99.90
20839;DHT22;10580;51.092;6.828;2023-03-14T16:24:11;7.60;99.90
20839;DHT22;10580;51.092;6.828;2023-03-14T16:26:36;7.50;99.90
20839;DHT22;10580;51.092;6.828;2023-03-14T16:29:02;7.50;99.90
20839;DHT22;10580;51.092;6.828;2023-03-14T16:31:28;7.40;99.90
20839;DHT22;10580;51.092;6.828;2023-03-14T16:33:53;7.40;99.90
20839;DHT22;10580;51.092;6.828;2023-03-14T16:36:19;7.30;99.90
20839;DHT22;10580;51.092;6.828;2023-03-14T16:38:45;7.30;99.90
20839;DHT22;10580;51.092;6.828;2023-03-14T16:41:18;7.30;99.90
20839;DHT22;10580;51.092;6.828;2023-03-14T16:43:44;7.20;99.90